sensor_id;sensor_type;location;lat;lon;timestamp;pressure;altitude;pressure_sealevel;temperature;humidity
48204;BME280;33994;50.998;5.864;2022-12-24T00:00:00;100279.44;;;9.69;96.66
48204;BME280;33994;50.998;5.864;2022-12-24T00:03:04;100285.56;;;9.67;96.99
48204;BME280;33994;50.998;5.864;2022-12-24T00:06:08;100284.72;;;9.66;97.25
48204;BME280;33994;50.998;5.864;2022-12-24T00:09:12;100290.84;;;9.65;97.29
48204;BME280;33994;50.998;5.864;2022-12-24T00:12:15;100290.03;;;9.62;97.46
48204;BME280;33994;50.998;5.864;2022-12-24T00:15:19;100289.19;;;9.60;98.03
48204;BME280;33994;50.998;5.864;2022-12-24T00:18:22;100282.19;;;9.62;98.46
48204;BME280;33994;50.998;5.864;2022-12-24T00:21:25;100280.53;;;9.58;98.83
48204;BME280;33994;50.998;5.864;2022-12-24T00:24:28;100282.31;;;9.56;99.11
48204;BME280;33994;50.998;5.864;2022-12-24T00:27:31;100284.91;;;9.56;99.29
48204;BME280;33994;50.998;5.864;2022-12-24T00:30:37;100297.97;;;9.56;99.25
48204;BME280;33994;50.998;5.864;2022-12-24T00:33:41;100299.72;;;9.55;99.16
48204;BME280;33994;50.998;5.864;2022-12-24T00:36:44;100291.91;;;9.55;99.01
48204;BME280;33994;50.998;5.864;2022-12-24T00:39:46;100303.19;;;9.56;98.74
48204;BME280;33994;50.998;5.864;2022-12-24T00:42:50;100313.63;;;9.56;98.41
48204;BME280;33994;50.998;5.864;2022-12-24T00:45:54;100317.16;;;9.55;98.08
48204;BME280;33994;50.998;5.864;2022-12-24T00:48:58;100315.44;;;9.54;97.74
48204;BME280;33994;50.998;5.864;2022-12-24T00:52:01;100318.91;;;9.53;97.41
48204;BME280;33994;50.998;5.864;2022-12-24T00:55:05;100322.41;;;9.52;97.22
48204;BME280;33994;50.998;5.864;2022-12-24T00:58:08;100338.94;;;9.52;96.97
48204;BME280;33994;50.998;5.864;2022-12-24T01:01:13;100352.03;;;9.51;96.77
48204;BME280;33994;50.998;5.864;2022-12-24T01:04:16;100358.97;;;9.52;96.55
48204;BME280;33994;50.998;5.864;2022-12-24T01:07:19;100357.25;;;9.51;96.34
48204;BME280;33994;50.998;5.864;2022-12-24T01:10:22;100357.25;;;9.51;96.32
48204;BME280;33994;50.998;5.864;2022-12-24T01:13:26;100372.88;;;9.52;96.19
48204;BME280;33994;50.998;5.864;2022-12-24T01:16:30;100372.91;;;9.51;96.08
48204;BME280;33994;50.998;5.864;2022-12-24T01:19:33;100381.66;;;9.49;95.94
48204;BME280;33994;50.998;5.864;2022-12-24T01:22:36;100381.59;;;9.51;95.90
48204;BME280;33994;50.998;5.864;2022-12-24T01:25:39;100385.06;;;9.52;95.82
48204;BME280;33994;50.998;5.864;2022-12-24T01:28:42;100380.72;;;9.52;95.51
48204;BME280;33994;50.998;5.864;2022-12-24T01:31:47;100374.63;;;9.52;95.14
48204;BME280;33994;50.998;5.864;2022-12-24T01:34:50;100377.25;;;9.52;94.95
48204;BME280;33994;50.998;5.864;2022-12-24T01:37:53;100391.16;;;9.52;94.88
48204;BME280;33994;50.998;5.864;2022-12-24T01:40:56;100388.53;;;9.54;94.93
48204;BME280;33994;50.998;5.864;2022-12-24T01:44:18;100390.28;;;9.52;94.81
48204;BME280;33994;50.998;5.864;2022-12-24T01:47:25;100397.22;;;9.53;94.79
48204;BME280;33994;50.998;5.864;2022-12-24T01:50:30;100394.63;;;9.53;95.02
48204;BME280;33994;50.998;5.864;2022-12-24T01:53:33;100389.38;;;9.54;95.23
48204;BME280;33994;50.998;5.864;2022-12-24T01:56:41;100379.84;;;9.53;95.59
48204;BME280;33994;50.998;5.864;2022-12-24T01:59:48;100384.16;;;9.54;96.11
48204;BME280;33994;50.998;5.864;2022-12-24T02:02:54;100391.97;;;9.56;96.26
48204;BME280;33994;50.998;5.864;2022-12-24T02:05:58;100394.56;;;9.57;96.64
48204;BME280;33994;50.998;5.864;2022-12-24T02:09:03;100401.50;;;9.58;96.95
48204;BME280;33994;50.998;5.864;2022-12-24T02:12:06;100405.81;;;9.59;97.23
48204;BME280;33994;50.998;5.864;2022-12-24T02:15:12;100408.44;;;9.61;97.21
48204;BME280;33994;50.998;5.864;2022-12-24T02:18:21;100415.38;;;9.60;97.06
48204;BME280;33994;50.998;5.864;2022-12-24T02:21:43;100423.19;;;9.62;97.23
48204;BME280;33994;50.998;5.864;2022-12-24T02:25:01;100424.94;;;9.61;97.57
48204;BME280;33994;50.998;5.864;2022-12-24T02:28:16;100431.06;;;9.59;98.79
48204;BME280;33994;50.998;5.864;2022-12-24T02:31:33;100436.38;;;9.54;100.00
48204;BME280;33994;50.998;5.864;2022-12-24T02:34:44;100439.03;;;9.51;100.00
48204;BME280;33994;50.998;5.864;2022-12-24T02:37:52;100448.63;;;9.49;100.00
48204;BME280;33994;50.998;5.864;2022-12-24T02:40:59;100440.00;;;9.45;100.00
48204;BME280;33994;50.998;5.864;2022-12-24T02:44:04;100435.69;;;9.41;100.00
48204;BME280;33994;50.998;5.864;2022-12-24T02:47:09;100448.78;;;9.40;100.00
48204;BME280;33994;50.998;5.864;2022-12-24T02:50:14;100462.72;;;9.39;100.00
48204;BME280;33994;50.998;5.864;2022-12-24T02:53:17;100453.19;;;9.36;100.00
48204;BME280;33994;50.998;5.864;2022-12-24T02:56:33;100442.78;;;9.35;100.00
48204;BME280;33994;50.998;5.864;2022-12-24T02:59:58;100444.53;;;9.34;100.00
48204;BME280;33994;50.998;5.864;2022-12-24T03:03:19;100448.06;;;9.32;100.00
48204;BME280;33994;50.998;5.864;2022-12-24T03:06:32;100439.38;;;9.30;100.00
48204;BME280;33994;50.998;5.864;2022-12-24T03:09:52;100452.47;;;9.28;100.00
48204;BME280;33994;50.998;5.864;2022-12-24T03:13:02;100455.94;;;9.29;100.00
48204;BME280;33994;50.998;5.864;2022-12-24T03:16:09;100461.19;;;9.27;100.00
48204;BME280;33994;50.998;5.864;2022-12-24T03:19:15;100458.56;;;9.27;100.00
48204;BME280;33994;50.998;5.864;2022-12-24T03:22:18;100466.41;;;9.25;100.00
48204;BME280;33994;50.998;5.864;2022-12-24T03:25:23;100475.97;;;9.25;100.00
48204;BME280;33994;50.998;5.864;2022-12-24T03:28:27;100468.16;;;9.23;100.00
48204;BME280;33994;50.998;5.864;2022-12-24T03:31:39;100465.56;;;9.22;100.00
48204;BME280;33994;50.998;5.864;2022-12-24T03:34:44;100473.41;;;9.20;100.00
48204;BME280;33994;50.998;5.864;2022-12-24T03:37:47;100481.31;;;9.16;100.00
48204;BME280;33994;50.998;5.864;2022-12-24T03:40:50;100473.53;;;9.13;100.00
48204;BME280;33994;50.998;5.864;2022-12-24T03:43:53;100476.19;;;9.10;100.00
48204;BME280;33994;50.998;5.864;2022-12-24T03:46:56;100473.59;;;9.07;100.00
48204;BME280;33994;50.998;5.864;2022-12-24T03:50:00;100484.06;;;9.05;100.00
48204;BME280;33994;50.998;5.864;2022-12-24T03:53:03;100479.72;;;9.06;100.00
48204;BME280;33994;50.998;5.864;2022-12-24T03:56:06;100478.00;;;9.05;100.00
48204;BME280;33994;50.998;5.864;2022-12-24T03:59:10;100476.25;;;9.05;100.00
48204;BME280;33994;50.998;5.864;2022-12-24T04:02:13;100483.19;;;9.08;100.00
48204;BME280;33994;50.998;5.864;2022-12-24T04:05:18;100483.16;;;9.09;100.00
48204;BME280;33994;50.998;5.864;2022-12-24T04:08:21;100491.84;;;9.10;100.00
48204;BME280;33994;50.998;5.864;2022-12-24T04:11:25;100486.59;;;9.10;100.00
48204;BME280;33994;50.998;5.864;2022-12-24T04:14:27;100502.25;;;9.10;100.00
48204;BME280;33994;50.998;5.864;2022-12-24T04:17:30;100507.47;;;9.11;100.00
48204;BME280;33994;50.998;5.864;2022-12-24T04:20:35;100501.38;;;9.12;100.00
48204;BME280;33994;50.998;5.864;2022-12-24T04:23:39;100497.00;;;9.13;100.00
48204;BME280;33994;50.998;5.864;2022-12-24T04:26:42;100511.78;;;9.14;100.00
48204;BME280;33994;50.998;5.864;2022-12-24T04:29:45;100517.00;;;9.14;100.00
48204;BME280;33994;50.998;5.864;2022-12-24T04:32:48;100514.38;;;9.15;100.00
48204;BME280;33994;50.998;5.864;2022-12-24T04:35:52;100517.84;;;9.16;100.00
48204;BME280;33994;50.998;5.864;2022-12-24T04:38:56;100530.91;;;9.16;100.00
48204;BME280;33994;50.998;5.864;2022-12-24T04:41:59;100524.81;;;9.14;100.00
48204;BME280;33994;50.998;5.864;2022-12-24T04:45:02;100523.94;;;9.15;100.00
48204;BME280;33994;50.998;5.864;2022-12-24T04:48:06;100526.53;;;9.16;100.00
48204;BME280;33994;50.998;5.864;2022-12-24T04:51:10;100530.00;;;9.17;100.00
48204;BME280;33994;50.998;5.864;2022-12-24T04:54:14;100540.41;;;9.18;100.00
48204;BME280;33994;50.998;5.864;2022-12-24T04:57:17;100536.91;;;9.21;100.00
48204;BME280;33994;50.998;5.864;2022-12-24T05:00:20;100543.84;;;9.22;100.00
48204;BME280;33994;50.998;5.864;2022-12-24T05:03:24;100542.09;;;9.24;100.00
48204;BME280;33994;50.998;5.864;2022-12-24T05:06:30;100537.75;;;9.23;100.00
48204;BME280;33994;50.998;5.864;2022-12-24T05:09:33;100545.53;;;9.26;100.00
48204;BME280;33994;50.998;5.864;2022-12-24T05:12:36;100546.41;;;9.28;100.00
48204;BME280;33994;50.998;5.864;2022-12-24T05:15:39;100549.88;;;9.29;100.00
48204;BME280;33994;50.998;5.864;2022-12-24T05:18:42;100539.44;;;9.29;100.00
48204;BME280;33994;50.998;5.864;2022-12-24T05:21:47;100540.28;;;9.31;100.00
48204;BME280;33994;50.998;5.864;2022-12-24T05:24:50;100547.22;;;9.30;100.00
48204;BME280;33994;50.998;5.864;2022-12-24T05:27:53;100547.22;;;9.30;100.00
48204;BME280;33994;50.998;5.864;2022-12-24T05:30:56;100553.34;;;9.31;100.00
48204;BME280;33994;50.998;5.864;2022-12-24T05:33:59;100549.88;;;9.29;100.00
48204;BME280;33994;50.998;5.864;2022-12-24T05:37:04;100558.56;;;9.29;100.00
48204;BME280;33994;50.998;5.864;2022-12-24T05:40:08;100559.44;;;9.28;100.00
48204;BME280;33994;50.998;5.864;2022-12-24T05:43:11;100556.81;;;9.30;100.00
48204;BME280;33994;50.998;5.864;2022-12-24T05:46:15;100564.63;;;9.31;100.00
48204;BME280;33994;50.998;5.864;2022-12-24T05:49:19;100552.44;;;9.30;100.00
48204;BME280;33994;50.998;5.864;2022-12-24T05:52:23;100569.84;;;9.31;100.00
48204;BME280;33994;50.998;5.864;2022-12-24T05:55:26;100576.78;;;9.32;100.00
48204;BME280;33994;50.998;5.864;2022-12-24T05:58:29;100570.69;;;9.35;100.00
48204;BME280;33994;50.998;5.864;2022-12-24T06:01:32;100569.81;;;9.34;100.00
48204;BME280;33994;50.998;5.864;2022-12-24T06:04:35;100571.53;;;9.35;100.00
48204;BME280;33994;50.998;5.864;2022-12-24T06:07:39;100576.75;;;9.35;100.00
48204;BME280;33994;50.998;5.864;2022-12-24T06:10:42;100578.50;;;9.33;100.00
48204;BME280;33994;50.998;5.864;2022-12-24T06:13:46;100573.31;;;9.30;100.00
48204;BME280;33994;50.998;5.864;2022-12-24T06:16:50;100578.53;;;9.30;100.00
48204;BME280;33994;50.998;5.864;2022-12-24T06:19:53;100587.25;;;9.29;100.00
48204;BME280;33994;50.998;5.864;2022-12-24T06:22:57;100588.16;;;9.28;100.00
48204;BME280;33994;50.998;5.864;2022-12-24T06:26:01;100586.41;;;9.29;100.00
48204;BME280;33994;50.998;5.864;2022-12-24T06:29:05;100589.03;;;9.29;100.00
48204;BME280;33994;50.998;5.864;2022-12-24T06:32:08;100597.72;;;9.29;100.00
48204;BME280;33994;50.998;5.864;2022-12-24T06:35:11;100604.72;;;9.27;100.00
48204;BME280;33994;50.998;5.864;2022-12-24T06:38:15;100597.75;;;9.26;100.00
48204;BME280;33994;50.998;5.864;2022-12-24T06:41:19;100603.84;;;9.27;100.00
48204;BME280;33994;50.998;5.864;2022-12-24T06:44:22;100607.31;;;9.27;100.00
48204;BME280;33994;50.998;5.864;2022-12-24T06:47:26;100612.53;;;9.27;100.00
48204;BME280;33994;50.998;5.864;2022-12-24T06:50:29;100607.28;;;9.29;100.00
48204;BME280;33994;50.998;5.864;2022-12-24T06:53:34;100602.06;;;9.29;100.00
48204;BME280;33994;50.998;5.864;2022-12-24T06:56:37;100599.47;;;9.29;100.00
48204;BME280;33994;50.998;5.864;2022-12-24T06:59:40;100615.09;;;9.30;100.00
48204;BME280;33994;50.998;5.864;2022-12-24T07:02:43;100604.63;;;9.30;100.00
48204;BME280;33994;50.998;5.864;2022-12-24T07:05:46;100606.41;;;9.31;100.00
48204;BME280;33994;50.998;5.864;2022-12-24T07:08:51;100611.63;;;9.31;100.00
48204;BME280;33994;50.998;5.864;2022-12-24T07:11:54;100625.50;;;9.33;100.00
48204;BME280;33994;50.998;5.864;2022-12-24T07:14:57;100621.13;;;9.34;100.00
48204;BME280;33994;50.998;5.864;2022-12-24T07:18:00;100630.69;;;9.36;100.00
48204;BME280;33994;50.998;5.864;2022-12-24T07:21:04;100635.91;;;9.36;99.94
48204;BME280;33994;50.998;5.864;2022-12-24T07:24:09;100639.41;;;9.35;99.96
48204;BME280;33994;50.998;5.864;2022-12-24T07:27:12;100651.53;;;9.38;99.81
48204;BME280;33994;50.998;5.864;2022-12-24T07:30:16;100648.03;;;9.40;99.65
48204;BME280;33994;50.998;5.864;2022-12-24T07:33:19;100651.50;;;9.42;99.50
48204;BME280;33994;50.998;5.864;2022-12-24T07:36:22;100655.81;;;9.43;99.34
48204;BME280;33994;50.998;5.864;2022-12-24T07:39:26;100661.91;;;9.45;99.14
48204;BME280;33994;50.998;5.864;2022-12-24T07:42:29;100661.88;;;9.47;99.12
48204;BME280;33994;50.998;5.864;2022-12-24T07:45:33;100674.88;;;9.48;99.24
48204;BME280;33994;50.998;5.864;2022-12-24T07:48:36;100671.44;;;9.46;99.24
48204;BME280;33994;50.998;5.864;2022-12-24T07:51:39;100677.56;;;9.45;99.26
48204;BME280;33994;50.998;5.864;2022-12-24T07:54:44;100688.00;;;9.45;99.42
48204;BME280;33994;50.998;5.864;2022-12-24T07:57:47;100690.63;;;9.44;99.51
48204;BME280;33994;50.998;5.864;2022-12-24T08:00:54;100693.22;;;9.44;99.48
48204;BME280;33994;50.998;5.864;2022-12-24T08:03:58;100692.34;;;9.45;99.46
48204;BME280;33994;50.998;5.864;2022-12-24T08:07:01;100697.59;;;9.43;99.42
48204;BME280;33994;50.998;5.864;2022-12-24T08:10:06;100701.91;;;9.44;99.25
48204;BME280;33994;50.998;5.864;2022-12-24T08:13:10;100700.16;;;9.45;99.14
48204;BME280;33994;50.998;5.864;2022-12-24T08:16:13;100701.91;;;9.44;99.10
48204;BME280;33994;50.998;5.864;2022-12-24T08:19:16;100720.19;;;9.46;99.10
48204;BME280;33994;50.998;5.864;2022-12-24T08:22:19;100729.72;;;9.48;99.16
48204;BME280;33994;50.998;5.864;2022-12-24T08:25:24;100722.72;;;9.54;99.08
48204;BME280;33994;50.998;5.864;2022-12-24T08:28:27;100727.88;;;9.57;98.99
48204;BME280;33994;50.998;5.864;2022-12-24T08:31:31;100718.31;;;9.57;98.80
48204;BME280;33994;50.998;5.864;2022-12-24T08:34:34;100723.53;;;9.57;98.53
48204;BME280;33994;50.998;5.864;2022-12-24T08:37:37;100726.09;;;9.60;98.34
48204;BME280;33994;50.998;5.864;2022-12-24T08:40:42;100734.81;;;9.61;98.22
48204;BME280;33994;50.998;5.864;2022-12-24T08:43:45;100726.94;;;9.62;98.34
48204;BME280;33994;50.998;5.864;2022-12-24T08:46:48;100730.41;;;9.63;98.19
48204;BME280;33994;50.998;5.864;2022-12-24T08:49:51;100729.53;;;9.64;98.12
48204;BME280;33994;50.998;5.864;2022-12-24T08:52:54;100739.09;;;9.65;98.11
48204;BME280;33994;50.998;5.864;2022-12-24T08:56:02;100740.84;;;9.63;97.91
48204;BME280;33994;50.998;5.864;2022-12-24T08:59:06;100747.88;;;9.61;97.80
48204;BME280;33994;50.998;5.864;2022-12-24T09:02:09;100752.22;;;9.59;97.94
48204;BME280;33994;50.998;5.864;2022-12-24T09:05:12;100757.44;;;9.59;98.00
48204;BME280;33994;50.998;5.864;2022-12-24T09:08:15;100759.19;;;9.58;97.99
48204;BME280;33994;50.998;5.864;2022-12-24T09:11:19;100764.41;;;9.57;97.96
48204;BME280;33994;50.998;5.864;2022-12-24T09:14:22;100760.09;;;9.57;97.97
48204;BME280;33994;50.998;5.864;2022-12-24T09:17:25;100778.34;;;9.59;97.97
48204;BME280;33994;50.998;5.864;2022-12-24T09:20:28;100784.44;;;9.58;97.78
48204;BME280;33994;50.998;5.864;2022-12-24T09:23:33;100794.88;;;9.59;97.80
48204;BME280;33994;50.998;5.864;2022-12-24T09:26:39;100803.56;;;9.60;97.58
48204;BME280;33994;50.998;5.864;2022-12-24T09:29:42;100794.00;;;9.59;97.63
48204;BME280;33994;50.998;5.864;2022-12-24T09:32:45;100780.97;;;9.57;97.60
48204;BME280;33994;50.998;5.864;2022-12-24T09:35:49;100795.75;;;9.57;97.54
48204;BME280;33994;50.998;5.864;2022-12-24T09:38:52;100800.97;;;9.58;97.59
48204;BME280;33994;50.998;5.864;2022-12-24T09:42:02;100811.41;;;9.57;97.47
48204;BME280;33994;50.998;5.864;2022-12-24T09:45:14;100812.28;;;9.59;97.42
48204;BME280;33994;50.998;5.864;2022-12-24T09:48:21;100814.88;;;9.59;97.26
48204;BME280;33994;50.998;5.864;2022-12-24T09:51:28;100821.84;;;9.60;97.27
48204;BME280;33994;50.998;5.864;2022-12-24T09:54:37;100816.63;;;9.60;97.03
48204;BME280;33994;50.998;5.864;2022-12-24T09:57:44;100836.66;;;9.61;96.90
48204;BME280;33994;50.998;5.864;2022-12-24T10:00:50;100835.75;;;9.62;96.82
48204;BME280;33994;50.998;5.864;2022-12-24T10:03:54;100836.59;;;9.65;96.85
48204;BME280;33994;50.998;5.864;2022-12-24T10:07:03;100832.22;;;9.66;96.74
48204;BME280;33994;50.998;5.864;2022-12-24T10:10:22;100845.22;;;9.70;96.73
48204;BME280;33994;50.998;5.864;2022-12-24T10:13:43;100854.75;;;9.74;96.29
48204;BME280;33994;50.998;5.864;2022-12-24T10:16:57;100852.13;;;9.78;96.22
48204;BME280;33994;50.998;5.864;2022-12-24T10:20:22;100859.91;;;9.79;95.96
48204;BME280;33994;50.998;5.864;2022-12-24T10:23:30;100845.94;;;9.83;95.80
48204;BME280;33994;50.998;5.864;2022-12-24T10:26:39;100854.63;;;9.85;95.75
48204;BME280;33994;50.998;5.864;2022-12-24T10:29:48;100851.13;;;9.86;95.73
48204;BME280;33994;50.998;5.864;2022-12-24T10:32:54;100847.63;;;9.89;95.60
48204;BME280;33994;50.998;5.864;2022-12-24T10:35:57;100844.13;;;9.91;95.63
48204;BME280;33994;50.998;5.864;2022-12-24T10:39:01;100841.47;;;9.94;95.85
48204;BME280;33994;50.998;5.864;2022-12-24T10:42:05;100824.03;;;9.95;95.77
48204;BME280;33994;50.998;5.864;2022-12-24T10:45:15;100829.25;;;9.96;95.76
48204;BME280;33994;50.998;5.864;2022-12-24T10:48:23;100831.00;;;9.96;95.63
48204;BME280;33994;50.998;5.864;2022-12-24T10:51:33;100837.09;;;9.96;95.40
48204;BME280;33994;50.998;5.864;2022-12-24T10:55:04;100844.91;;;10.00;95.24
48204;BME280;33994;50.998;5.864;2022-12-24T10:58:12;100839.63;;;10.04;95.11
48204;BME280;33994;50.998;5.864;2022-12-24T11:01:19;100835.22;;;10.08;94.89
48204;BME280;33994;50.998;5.864;2022-12-24T11:04:24;100836.03;;;10.10;94.67
48204;BME280;33994;50.998;5.864;2022-12-24T11:07:30;100833.41;;;10.13;94.21
48204;BME280;33994;50.998;5.864;2022-12-24T11:10:35;100829.88;;;10.14;93.75
48204;BME280;33994;50.998;5.864;2022-12-24T11:13:43;100831.63;;;10.15;93.48
48204;BME280;33994;50.998;5.864;2022-12-24T11:16:51;100824.63;;;10.17;93.18
48204;BME280;33994;50.998;5.864;2022-12-24T11:19:55;100835.13;;;10.14;92.94
48204;BME280;33994;50.998;5.864;2022-12-24T11:23:00;100839.47;;;10.15;92.64
48204;BME280;33994;50.998;5.864;2022-12-24T11:26:04;100837.72;;;10.15;92.46
48204;BME280;33994;50.998;5.864;2022-12-24T11:29:16;100845.53;;;10.17;91.94
48204;BME280;33994;50.998;5.864;2022-12-24T11:32:22;100835.03;;;10.20;91.87
48204;BME280;33994;50.998;5.864;2022-12-24T11:35:25;100831.50;;;10.24;91.70
48204;BME280;33994;50.998;5.864;2022-12-24T11:38:30;100829.75;;;10.26;91.44
48204;BME280;33994;50.998;5.864;2022-12-24T11:41:35;100835.84;;;10.25;91.06
48204;BME280;33994;50.998;5.864;2022-12-24T11:44:45;100833.22;;;10.25;90.90
48204;BME280;33994;50.998;5.864;2022-12-24T11:47:52;100832.38;;;10.26;91.03
48204;BME280;33994;50.998;5.864;2022-12-24T11:50:57;100823.63;;;10.27;91.01
48204;BME280;33994;50.998;5.864;2022-12-24T11:54:07;100828.81;;;10.30;90.99
48204;BME280;33994;50.998;5.864;2022-12-24T11:57:16;100832.25;;;10.34;91.18
48204;BME280;33994;50.998;5.864;2022-12-24T12:00:20;100840.03;;;10.38;91.04
48204;BME280;33994;50.998;5.864;2022-12-24T12:03:29;100853.03;;;10.43;90.96
48204;BME280;33994;50.998;5.864;2022-12-24T12:06:36;100855.56;;;10.49;90.88
48204;BME280;33994;50.998;5.864;2022-12-24T12:09:43;100859.88;;;10.53;90.80
48204;BME280;33994;50.998;5.864;2022-12-24T12:12:55;100852.00;;;10.55;90.60
48204;BME280;33994;50.998;5.864;2022-12-24T12:16:07;100853.69;;;10.59;90.59
48204;BME280;33994;50.998;5.864;2022-12-24T12:19:18;100853.63;;;10.62;90.45
48204;BME280;33994;50.998;5.864;2022-12-24T12:22:25;100864.06;;;10.65;89.71
48204;BME280;33994;50.998;5.864;2022-12-24T12:25:34;100864.91;;;10.65;89.59
48204;BME280;33994;50.998;5.864;2022-12-24T12:28:43;100857.91;;;10.67;89.35
48204;BME280;33994;50.998;5.864;2022-12-24T12:31:51;100858.78;;;10.68;89.43
48204;BME280;33994;50.998;5.864;2022-12-24T12:35:04;100869.25;;;10.68;89.11
48204;BME280;33994;50.998;5.864;2022-12-24T12:38:21;100872.72;;;10.67;89.16
48204;BME280;33994;50.998;5.864;2022-12-24T12:41:42;100879.75;;;10.65;88.93
48204;BME280;33994;50.998;5.864;2022-12-24T12:45:03;100874.56;;;10.62;88.87
48204;BME280;33994;50.998;5.864;2022-12-24T12:48:25;100876.31;;;10.60;88.84
48204;BME280;33994;50.998;5.864;2022-12-24T12:51:39;100878.97;;;10.58;88.91
48204;BME280;33994;50.998;5.864;2022-12-24T12:55:04;100873.78;;;10.55;89.02
48204;BME280;33994;50.998;5.864;2022-12-24T12:58:17;100879.91;;;10.54;89.03
48204;BME280;33994;50.998;5.864;2022-12-24T13:01:25;100879.03;;;10.54;88.97
48204;BME280;33994;50.998;5.864;2022-12-24T13:04:59;100881.66;;;10.52;89.05
48204;BME280;33994;50.998;5.864;2022-12-24T13:08:23;100886.91;;;10.51;89.11
48204;BME280;33994;50.998;5.864;2022-12-24T13:11:46;100880.84;;;10.50;89.18
48204;BME280;33994;50.998;5.864;2022-12-24T13:18:33;100884.28;;;10.54;89.12
48204;BME280;33994;50.998;5.864;2022-12-24T13:21:44;100890.31;;;10.56;89.18
48204;BME280;33994;50.998;5.864;2022-12-24T13:24:51;100882.47;;;10.57;89.21
48204;BME280;33994;50.998;5.864;2022-12-24T13:27:54;100891.19;;;10.58;89.18
48204;BME280;33994;50.998;5.864;2022-12-24T13:31:31;100899.00;;;10.59;88.73
48204;BME280;33994;50.998;5.864;2022-12-24T13:34:35;100897.28;;;10.58;88.94
48204;BME280;33994;50.998;5.864;2022-12-24T13:37:38;100906.03;;;10.56;88.94
48204;BME280;33994;50.998;5.864;2022-12-24T13:40:42;100913.06;;;10.51;88.57
48204;BME280;33994;50.998;5.864;2022-12-24T13:44:00;100912.25;;;10.49;88.62
48204;BME280;33994;50.998;5.864;2022-12-24T13:47:17;100909.63;;;10.47;88.71
48204;BME280;33994;50.998;5.864;2022-12-24T13:50:23;100914.91;;;10.45;89.04
48204;BME280;33994;50.998;5.864;2022-12-24T13:53:31;100918.38;;;10.44;89.12
48204;BME280;33994;50.998;5.864;2022-12-24T13:56:37;100916.66;;;10.43;89.27
48204;BME280;33994;50.998;5.864;2022-12-24T13:59:41;100907.97;;;10.41;89.32
48204;BME280;33994;50.998;5.864;2022-12-24T14:02:47;100903.66;;;10.37;89.42
48204;BME280;33994;50.998;5.864;2022-12-24T14:05:54;100898.44;;;10.36;89.66
48204;BME280;33994;50.998;5.864;2022-12-24T14:09:06;100908.06;;;10.32;89.82
48204;BME280;33994;50.998;5.864;2022-12-24T14:12:45;100903.78;;;10.30;89.93
48204;BME280;33994;50.998;5.864;2022-12-24T14:16:00;100905.56;;;10.26;89.87
48204;BME280;33994;50.998;5.864;2022-12-24T14:19:11;100904.69;;;10.24;90.12
48204;BME280;33994;50.998;5.864;2022-12-24T14:22:23;100909.06;;;10.23;90.30
48204;BME280;33994;50.998;5.864;2022-12-24T14:25:28;100919.50;;;10.23;90.36
48204;BME280;33994;50.998;5.864;2022-12-24T14:28:38;100926.47;;;10.25;90.46
48204;BME280;33994;50.998;5.864;2022-12-24T14:31:49;100923.84;;;10.26;90.38
48204;BME280;33994;50.998;5.864;2022-12-24T14:35:05;100927.28;;;10.28;90.41
48204;BME280;33994;50.998;5.864;2022-12-24T14:38:13;100934.25;;;10.29;90.55
48204;BME280;33994;50.998;5.864;2022-12-24T14:41:29;100940.34;;;10.31;90.54
48204;BME280;33994;50.998;5.864;2022-12-24T14:44:40;100942.09;;;10.31;90.86
48204;BME280;33994;50.998;5.864;2022-12-24T14:47:53;100942.94;;;10.31;90.91
48204;BME280;33994;50.998;5.864;2022-12-24T14:51:09;100944.66;;;10.32;90.89
48204;BME280;33994;50.998;5.864;2022-12-24T14:54:28;100950.81;;;10.30;90.94
48204;BME280;33994;50.998;5.864;2022-12-24T14:57:32;100951.69;;;10.29;91.09
48204;BME280;33994;50.998;5.864;2022-12-24T15:00:37;100944.75;;;10.26;90.99
48204;BME280;33994;50.998;5.864;2022-12-24T15:03:40;100953.47;;;10.25;90.98
48204;BME280;33994;50.998;5.864;2022-12-24T15:06:45;100956.09;;;10.23;90.99
48204;BME280;33994;50.998;5.864;2022-12-24T15:09:49;100957.00;;;10.21;91.10
48204;BME280;33994;50.998;5.864;2022-12-24T15:12:54;100970.09;;;10.19;91.09
48204;BME280;33994;50.998;5.864;2022-12-24T15:16:00;100972.78;;;10.15;90.91
48204;BME280;33994;50.998;5.864;2022-12-24T15:19:06;100972.78;;;10.12;91.23
48204;BME280;33994;50.998;5.864;2022-12-24T15:22:16;100981.56;;;10.08;91.29
48204;BME280;33994;50.998;5.864;2022-12-24T15:25:25;100986.78;;;10.06;91.28
48204;BME280;33994;50.998;5.864;2022-12-24T15:28:35;100988.56;;;10.03;91.54
48204;BME280;33994;50.998;5.864;2022-12-24T15:31:39;100983.38;;;10.00;91.50
48204;BME280;33994;50.998;5.864;2022-12-24T15:34:44;100989.50;;;9.97;91.55
48204;BME280;33994;50.998;5.864;2022-12-24T15:37:48;100993.00;;;9.94;91.70
48204;BME280;33994;50.998;5.864;2022-12-24T15:40:52;101004.34;;;9.90;91.97
48204;BME280;33994;50.998;5.864;2022-12-24T15:43:59;101006.13;;;9.88;92.05
48204;BME280;33994;50.998;5.864;2022-12-24T15:47:07;101000.06;;;9.85;92.27
48204;BME280;33994;50.998;5.864;2022-12-24T15:50:20;101008.81;;;9.81;92.36
48204;BME280;33994;50.998;5.864;2022-12-24T15:53:28;101013.19;;;9.77;92.79
48204;BME280;33994;50.998;5.864;2022-12-24T15:56:36;101000.19;;;9.72;92.82
48204;BME280;33994;50.998;5.864;2022-12-24T15:59:40;100989.72;;;9.71;93.03
48204;BME280;33994;50.998;5.864;2022-12-24T16:02:44;100999.34;;;9.66;93.24
48204;BME280;33994;50.998;5.864;2022-12-24T16:05:57;101000.31;;;9.56;93.79
48204;BME280;33994;50.998;5.864;2022-12-24T16:12:48;101003.00;;;9.46;94.72
48204;BME280;33994;50.998;5.864;2022-12-24T16:15:52;101000.41;;;9.43;95.06
48204;BME280;33994;50.998;5.864;2022-12-24T16:18:58;100987.38;;;9.42;95.41
48204;BME280;33994;50.998;5.864;2022-12-24T16:22:03;100992.59;;;9.37;95.68
48204;BME280;33994;50.998;5.864;2022-12-24T16:25:21;100993.50;;;9.35;96.21
48204;BME280;33994;50.998;5.864;2022-12-24T16:28:25;100992.66;;;9.33;96.08